Grafton, Iowa
Current Conditions -  °F | °C
As of 2:53 PM on Friday 19 Dec 2014 (Local Time) from KMCW Reporting Station
Haze Haze  
Wind Chill: 21°   Ceiling: 1000
Heat Index: 30°   Visibility: 5mi
Dew Point: 26°   Wind: 10mph
Humidity: 85%   Direction: 150°SSE
Pressure: 30.21"   Gusts: NA
Location:  43.33°N, 93.07°W
Report Text: KMCW 192053Z AUTO 15009KT 5SM BR OVC010 M01/M03 A3021 RMK AO2 SLP240 T10111033 56010
Loading
Personal Weather Stations






























Interactive Weather Map New forecast layout! Learn more

10-Day Weather Forecast

Advertisements
Track Severe Weather on mobile